Aérodrome :
LOGIN :

S'inscrire | Disclaimer

   EN    FR    IT 

 










Légende :    VFR   VFR Marginal   IFR   IFR Intensif   IFR Très Intensif
Visi : 
Plafond : 
>= 8 km
>= 3000ft
5 à 8 km
1000 à 3000 ft
1500m à 5 km
500 à 1000 ft
800 à 1500m
200 à 500 ft
< 800m
< 200 ft
Symboles :   Orages  Brouillard  Fortes neiges  Fortes précipitations  Vent > 20 kt
SIGMETs :   Divers  Orages  Givrage  Turbulence  Onde Orograph.  Cendres Volcan.







- Altitude de l'aérodrome : 628 ft
- Code IATA : CMR
- Voir les cartes d'approche


LFGA - Colmar-Houssen

DERNIER METAR :
  • 201430Z AUTO 22007KT 150V290 CAVOK 26/13 Q1013

METARs EXPIRÉS :
  • 201400Z AUTO 21007KT 180V240 9999 BKN058/// BKN072/// ///CB 25/14 Q1013
  • 201330Z AUTO 19008KT 150V260 9999 SCT056/// BKN068/// BKN090/// ///CB 25/13 Q1013
  • 201300Z AUTO 21013KT 9999 SCT056/// BKN072/// BKN088/// ///CB 23/14 Q1013
  • 201230Z AUTO 18012KT 9999 ///CB 24/14 Q1013

TAF N/A
Pas de NOTAMs connus pour ce terrain.



MET'MAP, la Météo Aéronautique d'un coup d'oeil ! - Copyright ORBIFLY Décembre 2007 - Disclaimer

ORBIFLY MET'MAP TEAM :

Programmation & Développement : Alexandra Zaïnal
Conception & Développement : Baudouin d'Aumeries
Co-Programmation & Développement : Marc-Olivier Méhu
Soutien technique & logistique : Manuel Goepfert

Contact : metmap@orbifly.com




SOURCES & CREDITS :

   NOAA